Miraero Ace — 3FIH4 — position and weather

sailwx.info

Track history (hours):
 
Tides and Currents Weather Stations Pressure Air Temp Water Temp Dewpoint Dewpoint Depression Visibility Wind Speed Wind Dir Waves Ship Positions

Miraero Ace

Last reported at 2016-Sep-25 04:33 UTC. Time now 2016-Sep-25 07:15 UTC.
Position N 55°22' E 014°37'.

Length 229 m; draft 7.6 m.

Type: Ship. MMSI: 373216000.

Date/timePositionNaut miles runAvg speedWind from/ knotsBaromVisibWave heightAir tempDewpointWater temp
2016-Sep-25 04:33N 55°22' E 014°37'5213.0
2016-Sep-25 00:32N 54°52' E 013°22'2713.5
2016-Sep-24 22:33N 54°43' E 012°38'1413.8
2016-Sep-24 21:34N 54°35' E 012°19'2211.2
2016-Sep-24 19:33N 54°26' E 011°44'1313.1
2016-Sep-24 18:33N 54°32' E 011°23'1313.2
2016-Sep-24 17:33N 54°38' E 011°03'1211.5
2016-Sep-24 16:33N 54°47' E 010°52'2512.4
2016-Sep-24 14:33N 55°11' E 011°04'4811.6
2016-Sep-24 10:22N 55°59' E 011°03'1312.5
2016-Sep-24 09:19N 56°10' E 011°16'6811.8
2016-Sep-24 03:33N 57°18' E 011°31'1312.8
2016-Sep-24 02:33N 57°29' E 011°20'1413.5
2016-Sep-24 01:33N 57°36' E 010°58'1212.4
2016-Sep-24 00:33N 57°43' E 010°39'0 0.0
2016-Sep-23 16:17N 57°42' E 010°39'1 0.7
2016-Sep-23 15:33N 57°42' E 010°39'5 2.3
2016-Sep-23 13:33N 57°45' E 010°46'22413.2
2016-Sep-22 20:33N 55°19' E 005°37'22413.8
2016-Sep-22 04:19N 52°02' E 002°38'1114.4
2016-Sep-22 03:33N 51°51' E 002°37'3912.9
2016-Sep-22 00:33N 51°17' E 002°06'1110.6
2016-Sep-21 23:33N 51°10' E 001°53'1010.2
2016-Sep-21 22:34N 51°04' E 001°40'3310.8
2016-Sep-21 19:32N 50°37' E 001°10'3712.2
2016-Sep-21 16:33N 50°24' E 000°17'12015.0
2016-Sep-21 08:33N 49°52' W 002°44'4213.9
2016-Sep-21 05:33N 49°44' W 003°47'110 8.9
2016-Sep-20 17:14N 50°51' W 006°02'13912.4
2016-Sep-20 06:07N 53°06' W 005°07'4913.6
2016-Sep-20 02:33N 53°33' W 004°00'3511.8
2016-Sep-19 23:33N 53°27' W 003°02'1 0.2
2016-Sep-19 19:33N 53°28' W 003°01'0 0.0
2016-Sep-19 18:33N 53°28' W 003°01'0 0.0
2016-Sep-19 16:27N 53°28' W 003°01'0 0.0
2016-Sep-19 14:30N 53°28' W 003°01'0 0.0
2016-Sep-19 13:33N 53°28' W 003°01'0 0.0
2016-Sep-19 12:33N 53°28' W 003°01'0 0.0
2016-Sep-19 11:27N 53°28' W 003°01'0 0.0
2016-Sep-19 09:30N 53°28' W 003°01'0 0.0
2016-Sep-19 07:33N 53°28' W 003°01'0 0.0
2016-Sep-19 06:33N 53°28' W 003°01'0 0.0
2016-Sep-19 03:24N 53°28' W 003°01'0 0.0
2016-Sep-19 02:33N 53°28' W 003°01'0 0.0
2016-Sep-19 00:30N 53°28' W 003°01'0 0.0
2016-Sep-18 19:33N 53°28' W 003°01'0 0.0
2016-Sep-18 15:33N 53°28' W 003°01'0 0.0
2016-Sep-18 14:30N 53°28' W 003°01'0 0.0
2016-Sep-18 10:30N 53°28' W 003°01'0 0.0
2016-Sep-18 09:33N 53°28' W 003°01'0 0.0
2016-Sep-18 02:33N 53°28' W 003°01'0 0.0
2016-Sep-18 01:33N 53°28' W 003°01'0 0.0
2016-Sep-18 00:33N 53°28' W 003°01'0 0.0
2016-Sep-17 22:30N 53°28' W 003°01'0 0.0
2016-Sep-17 21:33N 53°28' W 003°01'0 0.0
2016-Sep-17 20:33N 53°28' W 003°01'0 0.0
2016-Sep-17 19:12N 53°28' W 003°01'0 0.0
2016-Sep-17 13:33N 53°28' W 003°01'0 0.0
2016-Sep-17 12:30N 53°28' W 003°01'0 0.0
2016-Sep-17 10:27N 53°28' W 003°01'0 0.0
2016-Sep-17 09:33N 53°28' W 003°01'0 0.0
2016-Sep-17 08:33N 53°28' W 003°01'0 0.0
2016-Sep-17 07:33N 53°28' W 003°01'0 0.0
2016-Sep-17 05:30N 53°28' W 003°01'0 0.0
2016-Sep-17 04:33N 53°28' W 003°01'0 0.0
2016-Sep-17 00:30N 53°28' W 003°01'0 0.0
2016-Sep-16 17:33N 53°28' W 003°01'0 0.0
2016-Sep-16 15:33N 53°28' W 003°01'0 0.0
2016-Sep-16 12:33N 53°28' W 003°01'0 0.0
2016-Sep-16 09:33N 53°28' W 003°01'0 0.0
2016-Sep-16 07:30N 53°28' W 003°01'0 0.0
2016-Sep-16 03:27N 53°28' W 003°01'0 0.0
2016-Sep-16 02:33N 53°28' W 003°01'0 0.0
2016-Sep-16 00:33N 53°28' W 003°01'0 0.0
2016-Sep-15 22:33N 53°28' W 003°01'0 0.0
2016-Sep-15 21:30N 53°28' W 003°01'0 0.0
2016-Sep-15 20:33N 53°28' W 003°01'0 0.0
2016-Sep-15 18:30N 53°28' W 003°01'0 0.0
2016-Sep-15 12:30N 53°28' W 003°01'0 0.0
2016-Sep-15 11:27N 53°28' W 003°01'  
Track history (hours):
 
Tides and Currents Weather Stations Pressure Air Temp Water Temp Dewpoint Dewpoint Depression Visibility Wind Speed Wind Dir Waves Ship Positions

Miraero Ace

Last reported at 2016-Sep-25 04:33 UTC. Time now 2016-Sep-25 07:15 UTC.
Position N 55°22' E 014°37'.

Length 229 m; draft 7.6 m.

Type: Ship. MMSI: 373216000.

Date/timePositionNaut miles runAvg speedWind from/ knotsBaromVisibWave heightAir tempDewpointWater temp
2016-Sep-25 04:33N 55°22' E 014°37'5213.0
2016-Sep-25 00:32N 54°52' E 013°22'2713.5
2016-Sep-24 22:33N 54°43' E 012°38'1413.8
2016-Sep-24 21:34N 54°35' E 012°19'2211.2
2016-Sep-24 19:33N 54°26' E 011°44'1313.1
2016-Sep-24 18:33N 54°32' E 011°23'1313.2
2016-Sep-24 17:33N 54°38' E 011°03'1211.5
2016-Sep-24 16:33N 54°47' E 010°52'2512.4
2016-Sep-24 14:33N 55°11' E 011°04'4811.6
2016-Sep-24 10:22N 55°59' E 011°03'1312.5
2016-Sep-24 09:19N 56°10' E 011°16'6811.8
2016-Sep-24 03:33N 57°18' E 011°31'1312.8
2016-Sep-24 02:33N 57°29' E 011°20'1413.5
2016-Sep-24 01:33N 57°36' E 010°58'1212.4
2016-Sep-24 00:33N 57°43' E 010°39'0 0.0
2016-Sep-23 16:17N 57°42' E 010°39'1 0.7
2016-Sep-23 15:33N 57°42' E 010°39'5 2.3
2016-Sep-23 13:33N 57°45' E 010°46'22413.2
2016-Sep-22 20:33N 55°19' E 005°37'22413.8
2016-Sep-22 04:19N 52°02' E 002°38'1114.4
2016-Sep-22 03:33N 51°51' E 002°37'3912.9
2016-Sep-22 00:33N 51°17' E 002°06'1110.6
2016-Sep-21 23:33N 51°10' E 001°53'1010.2
2016-Sep-21 22:34N 51°04' E 001°40'3310.8
2016-Sep-21 19:32N 50°37' E 001°10'3712.2
2016-Sep-21 16:33N 50°24' E 000°17'12015.0
2016-Sep-21 08:33N 49°52' W 002°44'4213.9
2016-Sep-21 05:33N 49°44' W 003°47'110 8.9
2016-Sep-20 17:14N 50°51' W 006°02'13912.4
2016-Sep-20 06:07N 53°06' W 005°07'4913.6
2016-Sep-20 02:33N 53°33' W 004°00'3511.8
2016-Sep-19 23:33N 53°27' W 003°02'1 0.2
2016-Sep-19 19:33N 53°28' W 003°01'0 0.0
2016-Sep-19 18:33N 53°28' W 003°01'0 0.0
2016-Sep-19 16:27N 53°28' W 003°01'0 0.0
2016-Sep-19 14:30N 53°28' W 003°01'0 0.0
2016-Sep-19 13:33N 53°28' W 003°01'0 0.0
2016-Sep-19 12:33N 53°28' W 003°01'0 0.0
2016-Sep-19 11:27N 53°28' W 003°01'0 0.0
2016-Sep-19 09:30N 53°28' W 003°01'0 0.0
2016-Sep-19 07:33N 53°28' W 003°01'0 0.0
2016-Sep-19 06:33N 53°28' W 003°01'0 0.0
2016-Sep-19 03:24N 53°28' W 003°01'0 0.0
2016-Sep-19 02:33N 53°28' W 003°01'0 0.0
2016-Sep-19 00:30N 53°28' W 003°01'0 0.0
2016-Sep-18 19:33N 53°28' W 003°01'0 0.0
2016-Sep-18 15:33N 53°28' W 003°01'0 0.0
2016-Sep-18 14:30N 53°28' W 003°01'0 0.0
2016-Sep-18 10:30N 53°28' W 003°01'0 0.0
2016-Sep-18 09:33N 53°28' W 003°01'0 0.0
2016-Sep-18 02:33N 53°28' W 003°01'0 0.0
2016-Sep-18 01:33N 53°28' W 003°01'0 0.0
2016-Sep-18 00:33N 53°28' W 003°01'0 0.0
2016-Sep-17 22:30N 53°28' W 003°01'0 0.0
2016-Sep-17 21:33N 53°28' W 003°01'0 0.0
2016-Sep-17 20:33N 53°28' W 003°01'0 0.0
2016-Sep-17 19:12N 53°28' W 003°01'0 0.0
2016-Sep-17 13:33N 53°28' W 003°01'0 0.0
2016-Sep-17 12:30N 53°28' W 003°01'0 0.0
2016-Sep-17 10:27N 53°28' W 003°01'0 0.0
2016-Sep-17 09:33N 53°28' W 003°01'0 0.0
2016-Sep-17 08:33N 53°28' W 003°01'0 0.0
2016-Sep-17 07:33N 53°28' W 003°01'0 0.0
2016-Sep-17 05:30N 53°28' W 003°01'0 0.0
2016-Sep-17 04:33N 53°28' W 003°01'0 0.0
2016-Sep-17 00:30N 53°28' W 003°01'0 0.0
2016-Sep-16 17:33N 53°28' W 003°01'0 0.0
2016-Sep-16 15:33N 53°28' W 003°01'0 0.0
2016-Sep-16 12:33N 53°28' W 003°01'0 0.0
2016-Sep-16 09:33N 53°28' W 003°01'0 0.0
2016-Sep-16 07:30N 53°28' W 003°01'0 0.0
2016-Sep-16 03:27N 53°28' W 003°01'0 0.0
2016-Sep-16 02:33N 53°28' W 003°01'0 0.0
2016-Sep-16 00:33N 53°28' W 003°01'0 0.0
2016-Sep-15 22:33N 53°28' W 003°01'0 0.0
2016-Sep-15 21:30N 53°28' W 003°01'0 0.0
2016-Sep-15 20:33N 53°28' W 003°01'0 0.0
2016-Sep-15 18:30N 53°28' W 003°01'0 0.0
2016-Sep-15 12:30N 53°28' W 003°01'0 0.0
2016-Sep-15 11:27N 53°28' W 003°01'  

Dump ship's entire track history